createdAt,value
2023-04-06T00:02:00.612Z,98138.03
2023-04-06T00:04:02.210Z,98139.66
2023-04-06T00:06:03.582Z,98137.88
2023-04-06T00:08:07.535Z,98140.25
2023-04-06T00:10:08.863Z,98131.63
2023-04-06T00:12:10.258Z,98133.19
2023-04-06T00:14:11.622Z,98131.34
2023-04-06T00:16:12.962Z,98141.44
2023-04-06T00:18:14.364Z,98139.56
2023-04-06T00:20:15.707Z,98131.69
2023-04-06T00:22:17.023Z,98119.56
2023-04-06T00:24:18.366Z,98132.19
2023-04-06T00:26:19.687Z,98125.16
2023-04-06T00:28:26.287Z,98128.53
2023-04-06T00:30:27.596Z,98127.66
2023-04-06T00:32:29.034Z,98126.81
2023-04-06T00:34:30.504Z,98125.19
2023-04-06T00:36:31.812Z,98121.81
2023-04-06T00:38:33.124Z,98127.84
2023-04-06T00:40:35.874Z,98118.59
2023-04-06T00:42:37.281Z,98121.22
2023-04-06T00:44:38.650Z,98118.81
2023-04-06T00:46:39.988Z,98118.84
2023-04-06T00:48:41.839Z,98125.88
2023-04-06T00:50:43.188Z,98132.72
2023-04-06T00:52:44.535Z,98132.06
2023-04-06T00:54:45.922Z,98129.72
2023-04-06T00:56:47.263Z,98131.63
2023-04-06T00:58:48.622Z,98131.72
2023-04-06T01:00:49.946Z,98124.97
2023-04-06T01:02:51.479Z,98125.88
2023-04-06T01:04:52.819Z,98122.53
2023-04-06T01:06:54.123Z,98131.88
2023-04-06T01:08:55.489Z,98045.25
2023-04-06T01:10:56.835Z,98124.34
2023-04-06T01:12:58.159Z,98138.03
2023-04-06T01:14:59.499Z,98132.09
2023-04-06T01:17:01.543Z,98130.41
2023-04-06T01:19:02.879Z,98135.53
2023-04-06T01:21:04.250Z,98121.94
2023-04-06T01:23:05.783Z,98126.16
2023-04-06T01:25:07.117Z,98126.97
2023-04-06T01:27:08.488Z,98121.81
2023-04-06T01:29:09.967Z,98125.16
2023-04-06T01:31:11.413Z,98120.78
2023-04-06T01:33:12.758Z,98127.50
2023-04-06T01:35:14.161Z,98124.72
2023-04-06T01:37:15.666Z,98115.19
2023-04-06T01:39:17.179Z,98120.09
2023-04-06T01:41:18.612Z,98119.91
2023-04-06T01:43:19.958Z,98114.59
2023-04-06T01:45:22.021Z,98111.03
2023-04-06T01:47:23.406Z,98114.28
2023-04-06T01:49:24.734Z,98108.06
2023-04-06T01:51:26.868Z,98113.06
2023-04-06T01:53:28.212Z,98104.53
2023-04-06T01:55:29.523Z,98110.44
2023-04-06T01:57:30.875Z,98110.56
2023-04-06T01:59:32.261Z,98112.38
2023-04-06T02:01:33.658Z,98108.19
2023-04-06T02:03:35.283Z,98111.72
2023-04-06T02:05:39.823Z,98107.47
2023-04-06T02:07:41.172Z,98108.38
2023-04-06T02:09:42.535Z,98109.34
2023-04-06T02:11:43.843Z,98104.38
2023-04-06T02:13:45.382Z,98104.53
2023-04-06T02:15:46.796Z,98111.53
2023-04-06T02:17:48.206Z,98108.22
2023-04-06T02:19:49.566Z,98105.75
2023-04-06T02:21:50.906Z,98107.56
2023-04-06T02:23:52.261Z,98106.84
2023-04-06T02:25:53.602Z,98101.00
2023-04-06T02:27:54.963Z,98108.72
2023-04-06T02:29:56.310Z,98103.72
2023-04-06T02:31:57.659Z,98102.22
2023-04-06T02:33:59.005Z,98098.97
2023-04-06T02:36:00.505Z,98109.28
2023-04-06T02:38:01.847Z,98106.00
2023-04-06T02:40:03.679Z,98101.78
2023-04-06T02:42:05.038Z,98104.19
2023-04-06T02:44:06.420Z,98106.94
2023-04-06T02:46:07.745Z,98112.34
2023-04-06T02:48:09.101Z,98112.50
2023-04-06T02:50:10.747Z,98106.75
2023-04-06T02:52:12.171Z,98102.59
2023-04-06T02:54:13.576Z,98102.44
2023-04-06T02:56:14.905Z,98102.03
2023-04-06T02:58:16.332Z,98112.16
2023-04-06T03:00:17.723Z,98106.88
2023-04-06T03:02:19.077Z,98114.28
2023-04-06T03:04:20.732Z,98112.28
2023-04-06T03:06:22.148Z,98107.75
2023-04-06T03:08:23.492Z,98113.69
2023-04-06T03:10:24.807Z,98112.56
2023-04-06T03:12:26.285Z,98114.97
2023-04-06T03:14:27.662Z,98114.88
2023-04-06T03:16:28.967Z,98113.06
2023-04-06T03:18:30.320Z,98111.22
2023-04-06T03:20:31.671Z,98111.13
2023-04-06T03:22:32.978Z,98111.03
2023-04-06T03:24:34.438Z,98114.44
2023-04-06T03:26:35.847Z,98112.69
2023-04-06T03:28:37.193Z,98115.19
2023-04-06T03:30:38.522Z,98118.59
2023-04-06T03:32:40.023Z,98114.38
2023-04-06T03:34:41.381Z,98117.03
2023-04-06T03:36:42.783Z,98110.31
2023-04-06T03:38:44.133Z,98118.84
2023-04-06T03:40:45.454Z,98120.72
2023-04-06T03:42:46.788Z,98122.53
2023-04-06T03:44:48.106Z,98131.22
2023-04-06T03:46:49.458Z,98122.78
2023-04-06T03:48:50.985Z,98125.47
2023-04-06T03:50:52.335Z,98129.03
2023-04-06T03:52:53.644Z,98130.72
2023-04-06T03:54:55.046Z,98127.47
2023-04-06T03:56:56.478Z,98131.00
2023-04-06T03:58:57.915Z,98132.00
2023-04-06T04:00:59.297Z,98136.41
2023-04-06T04:03:02.219Z,98136.56
2023-04-06T04:05:03.603Z,98140.97
2023-04-06T04:07:05.046Z,98136.81
2023-04-06T04:09:06.598Z,98137.75
2023-04-06T04:11:08.076Z,98137.00
2023-04-06T04:13:09.487Z,98136.19
2023-04-06T04:15:10.861Z,98137.16
2023-04-06T04:17:12.265Z,98138.06
2023-04-06T04:19:13.599Z,98140.69
2023-04-06T04:21:15.018Z,98136.50
2023-04-06T04:23:16.414Z,98136.50
2023-04-06T04:25:17.736Z,98139.00
2023-04-06T04:27:19.057Z,98139.75
2023-04-06T04:29:22.364Z,98145.56
2023-04-06T04:31:23.846Z,98141.16
2023-04-06T04:33:25.339Z,98141.75
2023-04-06T04:35:26.777Z,98137.28
2023-04-06T04:37:28.132Z,98138.66
2023-04-06T04:39:29.530Z,98147.84
2023-04-06T04:41:30.879Z,98144.25
2023-04-06T04:43:32.977Z,98144.94
2023-04-06T04:45:34.567Z,98144.81
2023-04-06T04:47:36.152Z,98149.84
2023-04-06T04:49:37.613Z,98146.38
2023-04-06T04:51:39.000Z,98145.47
2023-04-06T04:53:40.339Z,98147.06
2023-04-06T04:55:41.857Z,98142.81
2023-04-06T04:57:43.218Z,98145.25
2023-04-06T04:59:44.805Z,98152.06
2023-04-06T05:01:55.021Z,98141.91
2023-04-06T05:03:57.056Z,98147.06
2023-04-06T05:05:58.392Z,98146.31
2023-04-06T05:07:59.716Z,98143.91
2023-04-06T05:10:01.133Z,98140.56
2023-04-06T05:12:02.496Z,98147.53
2023-04-06T05:14:03.834Z,98138.28
2023-04-06T05:16:05.651Z,98145.25
2023-04-06T05:18:07.248Z,98147.06
2023-04-06T05:20:08.584Z,98155.66
2023-04-06T05:22:09.920Z,98149.81
2023-04-06T05:24:11.360Z,98160.94
2023-04-06T05:26:12.752Z,98162.78
2023-04-06T05:28:16.851Z,98157.84
2023-04-06T05:30:18.261Z,98150.28
2023-04-06T05:32:23.106Z,98158.03
2023-04-06T05:34:24.459Z,98157.28
2023-04-06T05:36:28.410Z,98160.75
2023-04-06T05:38:30.185Z,98164.22
2023-04-06T05:40:31.535Z,98163.38
2023-04-06T05:42:32.857Z,98164.22
2023-04-06T05:44:34.212Z,98156.63
2023-04-06T05:46:35.723Z,98163.41
2023-04-06T05:48:37.109Z,98160.00
2023-04-06T05:50:38.444Z,98165.88
2023-04-06T05:52:39.863Z,98170.03
2023-04-06T05:54:41.212Z,98163.94
2023-04-06T05:56:42.517Z,98165.47
2023-04-06T05:58:43.961Z,98169.47
2023-04-06T06:00:46.954Z,98159.03
2023-04-06T06:02:48.439Z,98157.97
2023-04-06T06:04:49.866Z,98160.31
2023-04-06T06:06:51.335Z,98157.63
2023-04-06T06:08:52.677Z,98161.78
2023-04-06T06:10:53.983Z,98160.81
2023-04-06T06:12:55.296Z,98159.88
2023-04-06T06:14:56.629Z,98161.50
2023-04-06T06:16:57.941Z,98161.41
2023-04-06T06:18:59.284Z,98171.66
2023-04-06T06:21:01.219Z,98166.53
2023-04-06T06:23:02.560Z,98167.38
2023-04-06T06:25:03.908Z,98163.19
2023-04-06T06:27:05.227Z,98165.91
2023-04-06T06:29:07.024Z,98166.06
2023-04-06T06:31:08.594Z,98171.28
2023-04-06T06:33:09.939Z,98165.47
2023-04-06T06:35:11.294Z,98171.59
2023-04-06T06:37:12.617Z,98169.19
2023-04-06T06:39:13.950Z,98171.00
2023-04-06T06:41:15.248Z,98170.25
2023-04-06T06:43:16.767Z,98177.19
2023-04-06T06:45:18.124Z,98168.84
2023-04-06T06:47:19.547Z,98174.09
2023-04-06T06:49:20.979Z,98167.38
2023-04-06T06:51:22.294Z,98173.44
2023-04-06T06:53:23.638Z,98171.81
2023-04-06T06:55:24.958Z,98166.81
2023-04-06T06:57:26.336Z,98167.69
2023-04-06T06:59:27.956Z,98185.63
2023-04-06T07:01:29.411Z,98177.13
2023-04-06T07:03:31.013Z,98166.06
2023-04-06T07:05:32.360Z,98168.53
2023-04-06T07:07:33.845Z,98175.31
2023-04-06T07:09:35.544Z,98176.91
2023-04-06T07:11:36.961Z,98168.31
2023-04-06T07:13:38.381Z,98167.28
2023-04-06T07:15:39.739Z,98171.34
2023-04-06T07:17:42.506Z,98168.50
2023-04-06T07:19:43.917Z,98166.56
2023-04-06T07:21:45.312Z,98170.59
2023-04-06T07:23:49.015Z,98173.78
2023-04-06T07:25:53.260Z,98175.41
2023-04-06T07:27:54.666Z,98172.69
2023-04-06T07:29:56.064Z,98179.38
2023-04-06T07:31:57.545Z,98172.50
2023-04-06T07:33:58.957Z,98174.13
2023-04-06T07:36:00.561Z,98178.34
2023-04-06T07:38:02.176Z,98178.34
2023-04-06T07:40:03.523Z,98179.16
2023-04-06T07:42:04.858Z,98173.22
2023-04-06T07:44:06.337Z,98174.19
2023-04-06T07:46:08.015Z,98186.22
2023-04-06T07:48:09.504Z,98175.22
2023-04-06T07:50:11.076Z,98177.84
2023-04-06T07:52:12.415Z,98184.66
2023-04-06T07:54:13.756Z,98187.38
2023-04-06T07:56:16.485Z,98188.28
2023-04-06T07:58:18.014Z,98186.69
2023-04-06T08:00:19.546Z,98193.56
2023-04-06T08:02:21.239Z,98183.44
2023-04-06T08:04:22.636Z,98180.06
2023-04-06T08:06:24.015Z,98174.19
2023-04-06T08:08:25.335Z,98180.19
2023-04-06T08:10:26.673Z,98188.75
2023-04-06T08:12:28.009Z,98184.59
2023-04-06T08:14:29.328Z,98185.50
2023-04-06T08:16:30.960Z,98188.91
2023-04-06T08:18:32.259Z,98190.66
2023-04-06T08:20:33.600Z,98190.66
2023-04-06T08:22:34.986Z,98190.72
2023-04-06T08:24:36.349Z,98189.06
2023-04-06T08:26:37.696Z,98187.38
2023-04-06T08:28:39.054Z,98189.06
2023-04-06T08:30:40.355Z,98192.41
2023-04-06T08:32:42.450Z,98064.44
2023-04-06T08:34:43.832Z,98179.53
2023-04-06T08:36:46.520Z,98180.25
2023-04-06T08:38:47.853Z,98181.00
2023-04-06T08:40:50.913Z,98175.72
2023-04-06T08:42:52.259Z,98170.47
2023-04-06T08:44:53.606Z,98172.88
2023-04-06T08:46:55.021Z,98171.88
2023-04-06T08:48:56.353Z,98176.81
2023-04-06T08:51:00.744Z,98169.03
2023-04-06T08:53:02.210Z,98173.16
2023-04-06T08:55:03.972Z,98179.81
2023-04-06T08:57:05.435Z,98168.69
2023-04-06T08:59:06.819Z,98170.31
2023-04-06T09:01:09.311Z,98175.38
2023-04-06T09:03:10.926Z,98173.72
2023-04-06T09:05:12.372Z,98164.38
2023-04-06T09:07:13.704Z,98172.94
2023-04-06T09:09:15.453Z,98166.06
2023-04-06T09:11:16.874Z,98173.78
2023-04-06T09:13:18.248Z,98160.22
2023-04-06T09:15:19.967Z,98162.03
2023-04-06T09:17:22.427Z,98174.88
2023-04-06T09:19:23.797Z,98163.03
2023-04-06T09:21:26.773Z,98163.06
2023-04-06T09:23:28.169Z,98158.03
2023-04-06T09:25:29.526Z,98160.75
2023-04-06T09:27:31.189Z,98159.94
2023-04-06T09:29:33.045Z,98158.31
2023-04-06T09:31:34.553Z,98156.66
2023-04-06T09:33:38.493Z,98155.88
2023-04-06T09:35:42.896Z,98159.34
2023-04-06T09:37:44.383Z,98162.81
2023-04-06T09:39:45.732Z,98157.75
2023-04-06T09:41:47.692Z,98145.94
2023-04-06T09:43:49.062Z,98151.91
2023-04-06T09:45:50.392Z,98148.56
2023-04-06T09:47:54.884Z,98148.59
2023-04-06T09:49:56.446Z,98151.16
2023-04-06T09:51:57.785Z,98145.19
2023-04-06T09:54:03.936Z,98153.69
2023-04-06T09:56:05.516Z,98147.69
2023-04-06T09:58:18.863Z,98146.00
2023-04-06T10:00:21.756Z,98147.59
2023-04-06T10:02:23.229Z,98151.72
2023-04-06T10:04:24.579Z,98149.97
2023-04-06T10:06:26.523Z,98142.97
2023-04-06T10:08:30.907Z,98146.28
2023-04-06T10:10:34.032Z,98141.88
2023-04-06T10:12:35.417Z,98135.81
2023-04-06T10:14:38.192Z,98143.28
2023-04-06T10:16:39.549Z,98140.63
2023-04-06T10:18:40.968Z,98137.16
2023-04-06T10:20:42.295Z,98142.09
2023-04-06T10:22:43.672Z,98137.81
2023-04-06T10:24:45.091Z,98131.72
2023-04-06T10:26:46.677Z,98131.72
2023-04-06T10:28:47.996Z,98128.31
2023-04-06T10:30:49.327Z,98130.88
2023-04-06T10:32:50.689Z,98129.97
2023-04-06T10:34:52.080Z,98132.59
2023-04-06T10:36:53.443Z,98132.53
2023-04-06T10:38:54.755Z,98130.16
2023-04-06T10:40:56.064Z,98125.16
2023-04-06T10:42:57.875Z,98121.81
2023-04-06T10:44:59.216Z,98116.78
2023-04-06T10:47:03.665Z,98017.09
2023-04-06T10:49:05.047Z,98122.00
2023-04-06T10:51:06.837Z,98121.22
2023-04-06T10:53:08.208Z,98123.09
2023-04-06T10:55:10.966Z,98126.63
2023-04-06T10:57:12.413Z,98114.94
2023-04-06T10:59:13.760Z,98118.53
2023-04-06T11:01:15.111Z,98130.63
2023-04-06T11:03:16.515Z,98124.78
2023-04-06T11:05:18.529Z,98121.53
2023-04-06T11:07:19.890Z,98117.38
2023-04-06T11:09:21.726Z,98131.09
2023-04-06T11:11:23.054Z,98116.75
2023-04-06T11:13:27.229Z,98127.06
2023-04-06T11:15:28.572Z,98124.50
2023-04-06T11:17:30.001Z,98120.19
2023-04-06T11:19:31.395Z,98119.31
2023-04-06T11:21:33.402Z,98114.94
2023-04-06T11:23:34.730Z,98116.53
2023-04-06T11:25:36.191Z,98118.97
2023-04-06T11:27:37.519Z,98110.41
2023-04-06T11:29:39.139Z,98106.91
2023-04-06T11:31:40.524Z,98109.28
2023-04-06T11:33:41.903Z,98108.31
2023-04-06T11:35:43.373Z,98109.97
2023-04-06T11:37:44.979Z,98099.66
2023-04-06T11:39:46.293Z,98102.16
2023-04-06T11:41:47.602Z,98092.66
2023-04-06T11:43:48.933Z,98090.97
2023-04-06T11:45:50.475Z,98090.91
2023-04-06T11:47:51.829Z,98089.16
2023-04-06T11:49:53.219Z,98089.09
2023-04-06T11:51:54.530Z,98088.19
2023-04-06T11:53:56.077Z,98076.28
2023-04-06T11:55:57.795Z,98083.94
2023-04-06T11:57:59.324Z,98086.50
2023-04-06T12:00:00.637Z,98087.38
2023-04-06T12:02:02.212Z,98070.41
2023-04-06T12:04:03.742Z,98078.75
2023-04-06T12:06:05.408Z,98086.19
2023-04-06T12:08:06.840Z,98079.28
2023-04-06T12:10:08.186Z,98080.06
2023-04-06T12:12:09.925Z,98079.22
2023-04-06T12:14:11.601Z,98076.72
2023-04-06T12:16:13.007Z,98081.13
2023-04-06T12:18:14.376Z,98082.13
2023-04-06T12:20:25.715Z,98079.66
2023-04-06T12:22:28.092Z,98077.34
2023-04-06T12:24:29.804Z,98079.16
2023-04-06T12:26:31.367Z,98076.69
2023-04-06T12:28:32.764Z,98075.97
2023-04-06T12:30:34.250Z,98074.38
2023-04-06T12:32:35.831Z,98074.53
2023-04-06T12:34:40.055Z,98072.53
2023-04-06T12:36:41.633Z,98078.84
2023-04-06T12:38:43.043Z,98065.91
2023-04-06T12:40:44.403Z,98072.72
2023-04-06T12:42:47.174Z,98067.66
2023-04-06T12:44:48.508Z,98060.69
2023-04-06T12:46:49.918Z,98055.81
2023-04-06T12:48:54.502Z,98055.16
2023-04-06T12:50:56.175Z,98063.44
2023-04-06T12:52:57.575Z,98055.91
2023-04-06T12:55:00.516Z,98052.81
2023-04-06T12:57:02.277Z,98046.72
2023-04-06T12:59:06.394Z,98042.66
2023-04-06T13:01:08.121Z,98036.81
2023-04-06T13:03:10.100Z,98033.97
2023-04-06T13:05:11.535Z,98030.22
2023-04-06T13:07:12.909Z,98030.50
2023-04-06T13:09:14.266Z,98037.94
2023-04-06T13:11:15.647Z,98028.69
2023-04-06T13:13:17.032Z,98023.72
2023-04-06T13:15:18.489Z,98026.63
2023-04-06T13:17:19.817Z,98031.47
2023-04-06T13:19:21.163Z,98024.56
2023-04-06T13:21:22.483Z,98015.44
2023-04-06T13:23:23.918Z,98028.41
2023-04-06T13:25:25.451Z,98021.97
2023-04-06T13:27:28.359Z,98027.78
2023-04-06T13:29:29.761Z,98028.34
2023-04-06T13:31:31.123Z,98016.56
2023-04-06T13:33:32.543Z,98013.84
2023-04-06T13:35:34.026Z,98014.59
2023-04-06T13:37:35.493Z,98014.59
2023-04-06T13:39:37.305Z,98019.38
2023-04-06T13:41:38.696Z,98010.22
2023-04-06T13:43:40.295Z,98013.47
2023-04-06T13:45:41.955Z,98014.72
2023-04-06T13:47:43.373Z,98011.00
2023-04-06T13:49:44.704Z,98008.69
2023-04-06T13:51:46.228Z,98019.44
2023-04-06T13:53:47.555Z,98022.09
2023-04-06T13:55:48.852Z,98015.66
2023-04-06T13:57:50.562Z,98016.81
2023-04-06T13:59:51.953Z,98011.13
2023-04-06T14:01:53.343Z,98010.28
2023-04-06T14:03:54.917Z,98000.44
2023-04-06T14:05:58.456Z,98009.75
2023-04-06T14:07:59.881Z,98002.81
2023-04-06T14:10:02.190Z,98003.84
2023-04-06T14:12:03.481Z,98006.03
2023-04-06T14:14:04.786Z,98000.13
2023-04-06T14:16:06.085Z,98002.94
2023-04-06T14:18:07.653Z,98006.94
2023-04-06T14:20:09.040Z,98007.50
2023-04-06T14:22:11.385Z,97997.88
2023-04-06T14:24:13.605Z,97989.63
2023-04-06T14:26:15.003Z,98003.50
2023-04-06T14:28:16.296Z,98001.09
2023-04-06T14:30:18.120Z,97997.06
2023-04-06T14:32:19.509Z,97995.50
2023-04-06T14:34:22.265Z,98004.75
2023-04-06T14:36:23.687Z,98003.25
2023-04-06T14:38:25.053Z,97996.28
2023-04-06T14:40:26.353Z,98000.72
2023-04-06T14:42:27.683Z,98005.94
2023-04-06T14:44:29.073Z,97998.53
2023-04-06T14:46:30.447Z,97998.63
2023-04-06T14:48:31.800Z,97994.00
2023-04-06T14:50:33.108Z,97997.41
2023-04-06T14:52:34.436Z,97991.06
2023-04-06T14:54:35.740Z,97996.41
2023-04-06T14:56:38.690Z,97992.28
2023-04-06T14:58:40.028Z,97988.19
2023-04-06T15:00:41.392Z,97989.16
2023-04-06T15:02:44.555Z,98002.84
2023-04-06T15:04:46.102Z,97996.97
2023-04-06T15:06:50.450Z,97991.88
2023-04-06T15:08:52.081Z,97997.84
2023-04-06T15:10:53.515Z,98003.78
2023-04-06T15:12:54.997Z,97996.00
2023-04-06T15:14:56.347Z,97993.44
2023-04-06T15:16:57.643Z,97988.31
2023-04-06T15:18:58.956Z,97986.56
2023-04-06T15:21:00.412Z,97986.50
2023-04-06T15:23:01.733Z,97987.34
2023-04-06T15:25:03.080Z,97982.28
2023-04-06T15:27:04.407Z,97990.72
2023-04-06T15:29:05.741Z,97983.09
2023-04-06T15:31:07.713Z,97989.06
2023-04-06T15:33:09.141Z,97982.22
2023-04-06T15:35:10.513Z,97984.88
2023-04-06T15:37:12.000Z,97985.72
2023-04-06T15:39:16.348Z,97986.50
2023-04-06T15:41:17.759Z,97982.25
2023-04-06T15:43:19.106Z,97984.81
2023-04-06T15:45:20.478Z,97988.16
2023-04-06T15:47:22.013Z,97983.84
2023-04-06T15:49:23.390Z,97983.25
2023-04-06T15:51:24.752Z,97988.28
2023-04-06T15:53:26.414Z,97976.88
2023-04-06T15:55:27.761Z,97976.28
2023-04-06T15:57:29.055Z,97978.91
2023-04-06T15:59:30.509Z,97978.75
2023-04-06T16:01:31.944Z,97976.50
2023-04-06T16:03:33.525Z,97977.50
2023-04-06T16:05:39.955Z,97980.44
2023-04-06T16:07:50.035Z,97973.84
2023-04-06T16:09:52.192Z,97970.38
2023-04-06T16:11:53.501Z,97971.38
2023-04-06T16:13:55.614Z,97974.94
2023-04-06T16:15:57.198Z,97976.03
2023-04-06T16:17:58.580Z,97979.50
2023-04-06T16:19:59.962Z,97976.25
2023-04-06T16:22:02.198Z,97979.09
2023-04-06T16:24:05.022Z,97974.03
2023-04-06T16:26:09.346Z,97975.31
2023-04-06T16:28:10.876Z,97969.53
2023-04-06T16:30:12.276Z,97980.72
2023-04-06T16:32:14.008Z,97978.19
2023-04-06T16:34:15.540Z,97971.50
2023-04-06T16:36:16.889Z,97973.34
2023-04-06T16:38:18.220Z,97975.09
2023-04-06T16:40:19.497Z,97986.22
2023-04-06T16:42:21.310Z,97980.34
2023-04-06T16:44:22.629Z,97975.25
2023-04-06T16:46:23.947Z,97978.72
2023-04-06T16:48:25.423Z,97978.78
2023-04-06T16:50:27.014Z,97976.28
2023-04-06T16:52:28.350Z,97979.63
2023-04-06T16:54:29.684Z,97974.59
2023-04-06T16:56:34.063Z,97984.81
2023-04-06T16:58:35.422Z,97980.53
2023-04-06T17:00:36.725Z,97984.78
2023-04-06T17:02:38.225Z,97986.38
2023-04-06T17:04:39.584Z,97980.34
2023-04-06T17:06:43.838Z,97981.97
2023-04-06T17:08:45.527Z,97981.00
2023-04-06T17:10:59.310Z,97979.28
2023-04-06T17:13:06.228Z,97979.94
2023-04-06T17:15:07.539Z,97975.56
2023-04-06T17:17:08.877Z,97980.69
2023-04-06T17:19:10.283Z,97975.53
2023-04-06T17:21:14.437Z,97978.03
2023-04-06T17:23:16.592Z,97972.91
2023-04-06T17:25:18.014Z,97977.97
2023-04-06T17:27:22.862Z,97981.44
2023-04-06T17:29:27.160Z,97978.91
2023-04-06T17:31:28.505Z,97976.34
2023-04-06T17:33:32.514Z,97979.53
2023-04-06T17:35:33.862Z,97980.59
2023-04-06T17:37:36.014Z,97985.97
2023-04-06T17:39:37.303Z,97980.13
2023-04-06T17:41:38.675Z,97985.91
2023-04-06T17:43:39.982Z,97988.25
2023-04-06T17:45:41.358Z,97982.63
2023-04-06T17:47:42.707Z,97986.44
2023-04-06T17:49:44.035Z,97990.81
2023-04-06T17:51:45.499Z,97984.44
2023-04-06T17:53:46.793Z,97992.38
2023-04-06T17:55:48.095Z,97986.91
2023-04-06T17:57:49.500Z,97991.59
2023-04-06T17:59:50.840Z,97991.69
2023-04-06T18:01:52.231Z,97990.34
2023-04-06T18:03:53.745Z,97993.81
2023-04-06T18:05:55.510Z,98001.00
2023-04-06T18:07:56.909Z,97993.84
2023-04-06T18:10:01.507Z,97996.19
2023-04-06T18:12:02.892Z,98001.06
2023-04-06T18:14:04.193Z,98003.25
2023-04-06T18:16:08.694Z,98002.47
2023-04-06T18:18:10.305Z,98007.78
2023-04-06T18:20:13.364Z,98003.69
2023-04-06T18:22:19.319Z,98002.25
2023-04-06T18:24:37.556Z,98005.63
2023-04-06T18:26:41.931Z,98008.66
2023-04-06T18:28:43.261Z,98011.47
2023-04-06T18:30:44.592Z,98004.09
2023-04-06T18:32:45.928Z,98005.03
2023-04-06T18:34:50.205Z,98010.28
2023-04-06T18:36:51.586Z,98007.19
2023-04-06T18:38:52.953Z,98018.53
2023-04-06T18:40:54.254Z,98014.84
2023-04-06T18:42:55.566Z,98018.91
2023-04-06T18:44:56.944Z,98012.41
2023-04-06T18:46:58.284Z,98012.13
2023-04-06T18:48:59.615Z,98011.84
2023-04-06T18:51:02.269Z,98025.13
2023-04-06T18:53:03.603Z,98012.91
2023-04-06T18:55:05.318Z,98021.09
2023-04-06T18:57:10.092Z,98007.59
2023-04-06T18:59:12.137Z,98013.16
2023-04-06T19:01:13.435Z,98017.91
2023-04-06T19:03:14.909Z,98012.72
2023-04-06T19:05:19.614Z,98009.38
2023-04-06T19:07:22.247Z,98016.06
2023-04-06T19:11:25.263Z,98009.44
2023-04-06T19:13:28.708Z,98010.28
2023-04-06T19:15:30.200Z,98012.78
2023-04-06T19:17:31.555Z,98016.88
2023-04-06T19:19:32.985Z,98014.25
2023-04-06T19:21:34.313Z,98017.75
2023-04-06T19:23:36.222Z,98010.91
2023-04-06T19:25:37.568Z,98016.31
2023-04-06T19:27:39.476Z,98007.69
2023-04-06T19:31:42.125Z,98005.81
2023-04-06T19:33:43.466Z,98019.91
2023-04-06T19:35:44.830Z,98012.81
2023-04-06T19:37:46.207Z,98012.56
2023-04-06T19:39:47.806Z,98017.34
2023-04-06T19:41:49.161Z,98026.53
2023-04-06T19:43:50.447Z,98014.31
2023-04-06T19:45:51.880Z,98011.81
2023-04-06T19:47:53.242Z,98004.22
2023-04-06T19:49:54.618Z,98004.13
2023-04-06T19:51:56.103Z,98002.34
2023-04-06T19:53:57.421Z,98012.88
2023-04-06T19:55:58.766Z,98004.03
2023-04-06T19:58:00.122Z,98003.56
2023-04-06T20:00:01.427Z,98001.50
2023-04-06T20:02:02.927Z,98005.06
2023-04-06T20:04:04.609Z,98002.22
2023-04-06T20:06:05.962Z,98002.88
2023-04-06T20:08:07.351Z,98001.06
2023-04-06T20:10:08.648Z,98006.25
2023-04-06T20:12:09.959Z,98005.00
2023-04-06T20:14:11.604Z,98010.88
2023-04-06T20:16:15.668Z,98009.88
2023-04-06T20:18:17.043Z,98009.72
2023-04-06T20:20:24.556Z,98014.81
2023-04-06T20:22:26.035Z,98004.94
2023-04-06T20:24:27.331Z,98014.88
2023-04-06T20:26:28.628Z,98010.53
2023-04-06T20:28:29.919Z,98003.81
2023-04-06T20:30:31.259Z,98009.53
2023-04-06T20:32:33.754Z,98007.91
2023-04-06T20:34:35.102Z,98005.28
2023-04-06T20:36:36.438Z,98013.72
2023-04-06T20:38:37.806Z,98009.47
2023-04-06T20:40:39.992Z,98010.25
2023-04-06T20:42:41.834Z,98005.97
2023-04-06T20:44:43.283Z,98008.56
2023-04-06T20:46:45.757Z,98006.91
2023-04-06T20:48:47.199Z,98010.16
2023-04-06T20:50:49.457Z,98008.84
2023-04-06T20:52:54.391Z,98002.38
2023-04-06T20:54:56.374Z,98003.03
2023-04-06T20:57:01.070Z,98010.06
2023-04-06T20:59:04.883Z,98009.69
2023-04-06T21:01:06.258Z,97998.22
2023-04-06T21:03:07.883Z,98002.06
2023-04-06T21:05:09.321Z,98009.16
2023-04-06T21:07:10.816Z,98005.19
2023-04-06T21:09:12.188Z,98005.41
2023-04-06T21:11:13.541Z,98004.66
2023-04-06T21:13:14.851Z,97998.28
2023-04-06T21:15:16.348Z,98006.25
2023-04-06T21:17:17.726Z,98002.91
2023-04-06T21:19:19.091Z,98001.19
2023-04-06T21:21:20.471Z,98006.38
2023-04-06T21:23:23.042Z,97999.28
2023-04-06T21:25:24.491Z,98003.31
2023-04-06T21:27:25.835Z,97999.97
2023-04-06T21:29:27.128Z,97999.34
2023-04-06T21:31:28.447Z,97997.72
2023-04-06T21:33:29.802Z,97996.81
2023-04-06T21:35:31.123Z,97996.66
2023-04-06T21:37:32.491Z,97992.25
2023-04-06T21:39:33.882Z,98006.31
2023-04-06T21:41:35.346Z,97995.13
2023-04-06T21:43:36.698Z,97993.66
2023-04-06T21:45:38.002Z,97995.53
2023-04-06T21:47:39.943Z,97997.44
2023-04-06T21:49:41.300Z,97981.94
2023-04-06T21:51:42.606Z,97988.84
2023-04-06T21:53:43.948Z,97987.44
2023-04-06T21:55:45.314Z,97983.59
2023-04-06T21:57:46.676Z,97984.00
2023-04-06T21:59:48.009Z,97977.72
2023-04-06T22:01:49.380Z,97978.28
2023-04-06T22:03:50.850Z,97978.84
2023-04-06T22:05:52.483Z,97977.00
2023-04-06T22:07:53.901Z,97973.38
2023-04-06T22:09:55.258Z,97986.88
2023-04-06T22:11:56.592Z,97977.41
2023-04-06T22:13:57.947Z,97979.00
2023-04-06T22:15:59.325Z,97978.94
2023-04-06T22:18:01.067Z,97977.97
2023-04-06T22:20:02.407Z,97838.66
2023-04-06T22:22:03.778Z,97977.94
2023-04-06T22:24:05.058Z,97984.75
2023-04-06T22:26:06.733Z,97976.09
2023-04-06T22:28:08.149Z,97970.22
2023-04-06T22:30:09.505Z,97977.09
2023-04-06T22:32:11.043Z,97978.78
2023-04-06T22:34:12.467Z,97978.78
2023-04-06T22:36:13.796Z,97973.81
2023-04-06T22:38:17.183Z,97968.84
2023-04-06T22:40:18.562Z,97968.19
2023-04-06T22:42:19.993Z,97971.75
2023-04-06T22:44:21.383Z,97972.81
2023-04-06T22:46:23.345Z,97967.91
2023-04-06T22:48:24.789Z,97967.31
2023-04-06T22:50:26.316Z,97969.16
2023-04-06T22:52:27.723Z,97969.31
2023-04-06T22:54:29.037Z,97960.13
2023-04-06T22:56:30.449Z,97965.31
2023-04-06T22:58:31.835Z,97964.56
2023-04-06T23:00:33.160Z,97956.19
2023-04-06T23:02:34.650Z,97960.50
2023-04-06T23:04:36.338Z,97958.84
2023-04-06T23:06:37.668Z,97962.28
2023-04-06T23:08:38.964Z,97947.91
2023-04-06T23:10:42.086Z,97958.19
2023-04-06T23:12:43.498Z,97954.06
2023-04-06T23:14:44.881Z,97955.81
2023-04-06T23:16:46.353Z,97955.06
2023-04-06T23:18:47.698Z,97954.22
2023-04-06T23:20:49.040Z,97947.41
2023-04-06T23:22:50.478Z,97953.38
2023-04-06T23:24:51.860Z,97943.19
2023-04-06T23:26:53.217Z,97945.75
2023-04-06T23:28:55.248Z,97949.97
2023-04-06T23:30:56.674Z,97946.56
2023-04-06T23:32:58.059Z,97948.22
2023-04-06T23:34:59.422Z,97944.75
2023-04-06T23:37:03.658Z,97939.53
2023-04-06T23:39:05.000Z,97944.56
2023-04-06T23:41:06.499Z,97935.09
2023-04-06T23:43:07.798Z,97940.03
2023-04-06T23:45:09.095Z,97939.88
2023-04-06T23:47:10.825Z,97932.84
2023-04-06T23:49:12.216Z,97930.09
2023-04-06T23:51:13.530Z,97929.91
2023-04-06T23:53:14.924Z,97924.72
2023-04-06T23:55:16.284Z,97923.72